sensor_id;sensor_type;location;lat;lon;timestamp;pressure;altitude;pressure_sealevel;temperature;humidity
7264;BME280;3673;52.480;13.348;2024-02-21T00:00:22;101652.97;;;12.78;56.85
7264;BME280;3673;52.480;13.348;2024-02-21T00:02:50;101647.59;;;12.52;57.61
7264;BME280;3673;52.480;13.348;2024-02-21T00:05:18;101658.75;;;12.21;58.14
7264;BME280;3673;52.480;13.348;2024-02-21T00:07:46;101641.63;;;12.88;56.76
7264;BME280;3673;52.480;13.348;2024-02-21T00:10:13;101642.50;;;12.88;56.31
7264;BME280;3673;52.480;13.348;2024-02-21T00:12:40;101637.09;;;12.58;57.59
7264;BME280;3673;52.480;13.348;2024-02-21T00:15:07;101632.78;;;12.68;57.08
7264;BME280;3673;52.480;13.348;2024-02-21T00:17:34;101629.25;;;12.64;56.90
7264;BME280;3673;52.480;13.348;2024-02-21T00:20:01;101638.13;;;12.86;56.83
7264;BME280;3673;52.480;13.348;2024-02-21T00:22:28;101628.56;;;12.97;56.35
7264;BME280;3673;52.480;13.348;2024-02-21T00:24:58;101633.78;;;12.96;56.53
7264;BME280;3673;52.480;13.348;2024-02-21T00:27:24;101632.16;;;13.25;55.98
7264;BME280;3673;52.480;13.348;2024-02-21T00:29:51;101624.28;;;13.26;55.99
7264;BME280;3673;52.480;13.348;2024-02-21T00:32:18;101622.25;;;12.59;57.81
7264;BME280;3673;52.480;13.348;2024-02-21T00:34:45;101619.75;;;12.92;56.96
7264;BME280;3673;52.480;13.348;2024-02-21T00:37:11;101625.78;;;12.61;57.59
7264;BME280;3673;52.480;13.348;2024-02-21T00:39:38;101623.09;;;12.55;57.99
7264;BME280;3673;52.480;13.348;2024-02-21T00:42:06;101613.50;;;12.61;57.78
7264;BME280;3673;52.480;13.348;2024-02-21T00:44:33;101614.38;;;12.65;57.42
7264;BME280;3673;52.480;13.348;2024-02-21T00:47:00;101614.53;;;12.98;56.51
7264;BME280;3673;52.480;13.348;2024-02-21T00:49:26;101618.81;;;12.78;57.08
7264;BME280;3673;52.480;13.348;2024-02-21T00:51:53;101607.50;;;12.91;56.75
7264;BME280;3673;52.480;13.348;2024-02-21T00:54:20;101612.75;;;12.83;56.75
7264;BME280;3673;52.480;13.348;2024-02-21T00:56:48;101606.56;;;12.75;56.67
7264;BME280;3673;52.480;13.348;2024-02-21T00:59:16;101605.78;;;13.08;56.02
7264;BME280;3673;52.480;13.348;2024-02-21T01:01:43;101604.84;;;12.77;56.76
7264;BME280;3673;52.480;13.348;2024-02-21T01:04:10;101607.47;;;12.80;56.50
7264;BME280;3673;52.480;13.348;2024-02-21T01:06:36;101591.66;;;12.65;57.01
7264;BME280;3673;52.480;13.348;2024-02-21T01:09:03;101594.25;;;12.59;57.19
7264;BME280;3673;52.480;13.348;2024-02-21T01:11:30;101592.53;;;12.67;57.34
7264;BME280;3673;52.480;13.348;2024-02-21T01:13:56;101587.34;;;12.88;56.59
7264;BME280;3673;52.480;13.348;2024-02-21T01:16:25;101594.34;;;12.80;56.80
7264;BME280;3673;52.480;13.348;2024-02-21T01:18:52;101585.63;;;12.87;56.15
7264;BME280;3673;52.480;13.348;2024-02-21T01:21:19;101588.94;;;12.44;57.34
7264;BME280;3673;52.480;13.348;2024-02-21T01:23:45;101585.41;;;12.45;57.46
7264;BME280;3673;52.480;13.348;2024-02-21T01:26:12;101582.09;;;12.79;56.70
7264;BME280;3673;52.480;13.348;2024-02-21T01:28:41;101577.75;;;12.98;56.40
7264;BME280;3673;52.480;13.348;2024-02-21T01:31:08;101577.72;;;12.83;56.25
7264;BME280;3673;52.480;13.348;2024-02-21T01:33:36;101573.38;;;12.99;55.77
7264;BME280;3673;52.480;13.348;2024-02-21T01:36:05;101569.88;;;13.01;55.48
7264;BME280;3673;52.480;13.348;2024-02-21T01:38:33;101562.84;;;12.86;56.26
7264;BME280;3673;52.480;13.348;2024-02-21T01:41:00;101569.78;;;12.72;55.55
7264;BME280;3673;52.480;13.348;2024-02-21T01:43:27;101574.31;;;13.16;55.65
7264;BME280;3673;52.480;13.348;2024-02-21T01:45:55;101569.00;;;13.05;55.23
7264;BME280;3673;52.480;13.348;2024-02-21T01:48:22;101569.78;;;12.72;56.10
7264;BME280;3673;52.480;13.348;2024-02-21T01:50:53;101558.50;;;12.96;55.61
7264;BME280;3673;52.480;13.348;2024-02-21T01:53:24;101564.63;;;12.98;55.44
7264;BME280;3673;52.480;13.348;2024-02-21T01:55:51;101561.09;;;12.98;55.35
7264;BME280;3673;52.480;13.348;2024-02-21T01:58:19;101554.09;;;12.92;55.51
7264;BME280;3673;52.480;13.348;2024-02-21T02:00:47;101555.91;;;13.14;55.20
7264;BME280;3673;52.480;13.348;2024-02-21T02:06:58;101543.69;;;13.16;54.74
7264;BME280;3673;52.480;13.348;2024-02-21T02:09:26;101541.88;;;13.03;55.41
7264;BME280;3673;52.480;13.348;2024-02-21T02:11:53;101539.22;;;13.05;55.18
7264;BME280;3673;52.480;13.348;2024-02-21T02:14:19;101543.69;;;13.31;55.15
7264;BME280;3673;52.480;13.348;2024-02-21T02:16:47;101540.13;;;13.07;55.92
7264;BME280;3673;52.480;13.348;2024-02-21T02:19:14;101539.31;;;13.29;55.90
7264;BME280;3673;52.480;13.348;2024-02-21T02:21:46;101543.69;;;13.19;56.07
7264;BME280;3673;52.480;13.348;2024-02-21T02:24:20;101536.69;;;13.14;56.41
7264;BME280;3673;52.480;13.348;2024-02-21T02:26:47;101526.09;;;12.94;56.65
7264;BME280;3673;52.480;13.348;2024-02-21T02:29:14;101530.44;;;12.86;57.47
7264;BME280;3673;52.480;13.348;2024-02-21T02:31:42;101523.38;;;12.65;58.12
7264;BME280;3673;52.480;13.348;2024-02-21T02:34:09;101518.19;;;12.85;58.05
7264;BME280;3673;52.480;13.348;2024-02-21T02:36:36;101520.03;;;13.12;56.95
7264;BME280;3673;52.480;13.348;2024-02-21T02:39:03;101516.47;;;12.96;58.07
7264;BME280;3673;52.480;13.348;2024-02-21T02:41:31;101519.06;;;12.85;58.31
7264;BME280;3673;52.480;13.348;2024-02-21T02:43:57;101519.03;;;12.75;58.39
7264;BME280;3673;52.480;13.348;2024-02-21T02:46:24;101518.03;;;12.41;60.13
7264;BME280;3673;52.480;13.348;2024-02-21T02:48:51;101522.53;;;12.72;59.38
7264;BME280;3673;52.480;13.348;2024-02-21T02:51:18;101511.09;;;12.52;60.40
7264;BME280;3673;52.480;13.348;2024-02-21T02:53:44;101507.59;;;12.44;60.36
7264;BME280;3673;52.480;13.348;2024-02-21T02:56:14;101500.53;;;12.34;60.88
7264;BME280;3673;52.480;13.348;2024-02-21T02:58:42;101509.19;;;12.18;61.65
7264;BME280;3673;52.480;13.348;2024-02-21T03:01:09;101502.34;;;12.44;61.57
7264;BME280;3673;52.480;13.348;2024-02-21T03:03:36;101500.16;;;11.69;62.59
7264;BME280;3673;52.480;13.348;2024-02-21T03:06:03;101495.25;;;12.20;62.96
7264;BME280;3673;52.480;13.348;2024-02-21T03:08:31;101491.78;;;12.30;62.21
7264;BME280;3673;52.480;13.348;2024-02-21T03:10:58;101483.97;;;12.49;62.35
7264;BME280;3673;52.480;13.348;2024-02-21T03:13:25;101477.91;;;12.77;61.52
7264;BME280;3673;52.480;13.348;2024-02-21T03:15:53;101483.91;;;12.32;62.34
7264;BME280;3673;52.480;13.348;2024-02-21T03:18:19;101478.66;;;12.29;62.65
7264;BME280;3673;52.480;13.348;2024-02-21T03:20:46;101473.47;;;12.47;62.49
7264;BME280;3673;52.480;13.348;2024-02-21T03:23:13;101465.47;;;12.14;63.40
7264;BME280;3673;52.480;13.348;2024-02-21T03:25:41;101469.00;;;12.22;63.38
7264;BME280;3673;52.480;13.348;2024-02-21T03:28:07;101471.63;;;12.28;63.63
7264;BME280;3673;52.480;13.348;2024-02-21T03:30:34;101473.44;;;12.36;63.58
7264;BME280;3673;52.480;13.348;2024-02-21T03:33:03;101468.22;;;12.44;63.21
7264;BME280;3673;52.480;13.348;2024-02-21T03:35:30;101469.91;;;12.30;64.14
7264;BME280;3673;52.480;13.348;2024-02-21T03:37:57;101473.41;;;12.29;64.39
7264;BME280;3673;52.480;13.348;2024-02-21T03:40:24;101470.63;;;11.94;65.08
7264;BME280;3673;52.480;13.348;2024-02-21T03:42:51;101463.78;;;12.32;64.66
7264;BME280;3673;52.480;13.348;2024-02-21T03:45:17;101456.66;;;11.98;65.32
7264;BME280;3673;52.480;13.348;2024-02-21T03:47:45;101465.34;;;11.90;65.64
7264;BME280;3673;52.480;13.348;2024-02-21T03:50:14;101454.72;;;11.67;66.39
7264;BME280;3673;52.480;13.348;2024-02-21T03:52:41;101447.03;;;11.99;66.15
7264;BME280;3673;52.480;13.348;2024-02-21T03:55:08;101448.91;;;12.28;65.74
7264;BME280;3673;52.480;13.348;2024-02-21T03:57:35;101445.47;;;12.49;65.47
7264;BME280;3673;52.480;13.348;2024-02-21T04:00:02;101446.16;;;12.01;66.23
7264;BME280;3673;52.480;13.348;2024-02-21T04:02:29;101430.50;;;12.16;66.14
7264;BME280;3673;52.480;13.348;2024-02-21T04:04:56;101441.03;;;12.31;65.88
7264;BME280;3673;52.480;13.348;2024-02-21T04:07:24;101438.47;;;12.50;64.89
7264;BME280;3673;52.480;13.348;2024-02-21T04:09:51;101428.69;;;11.99;65.71
7264;BME280;3673;52.480;13.348;2024-02-21T04:12:18;101426.91;;;11.95;66.91
7264;BME280;3673;52.480;13.348;2024-02-21T04:14:44;101426.97;;;12.07;66.58
7264;BME280;3673;52.480;13.348;2024-02-21T04:17:11;101416.50;;;12.14;66.82
7264;BME280;3673;52.480;13.348;2024-02-21T04:19:38;101418.97;;;11.78;66.95
7264;BME280;3673;52.480;13.348;2024-02-21T04:22:07;101407.63;;;11.85;66.47
7264;BME280;3673;52.480;13.348;2024-02-21T04:24:35;101405.94;;;11.90;66.70
7264;BME280;3673;52.480;13.348;2024-02-21T04:27:02;101389.31;;;11.83;66.29
7264;BME280;3673;52.480;13.348;2024-02-21T04:29:29;101391.00;;;11.77;66.67
7264;BME280;3673;52.480;13.348;2024-02-21T04:31:56;101391.91;;;11.83;66.70
7264;BME280;3673;52.480;13.348;2024-02-21T04:34:23;101384.84;;;11.72;66.73
7264;BME280;3673;52.480;13.348;2024-02-21T04:36:50;101383.16;;;11.77;67.02
7264;BME280;3673;52.480;13.348;2024-02-21T04:39:16;101367.50;;;12.01;66.21
7264;BME280;3673;52.480;13.348;2024-02-21T04:41:44;101355.22;;;11.86;65.72
7264;BME280;3673;52.480;13.348;2024-02-21T04:44:11;101349.97;;;11.77;65.98
7264;BME280;3673;52.480;13.348;2024-02-21T04:46:38;101354.34;;;11.89;66.69
7264;BME280;3673;52.480;13.348;2024-02-21T04:49:08;101357.72;;;11.67;66.97
7264;BME280;3673;52.480;13.348;2024-02-21T04:51:34;101352.38;;;11.43;67.19
7264;BME280;3673;52.480;13.348;2024-02-21T04:54:01;101353.47;;;11.85;65.98
7264;BME280;3673;52.480;13.348;2024-02-21T04:56:29;101336.03;;;12.04;66.00
7264;BME280;3673;52.480;13.348;2024-02-21T04:58:57;101342.16;;;12.02;65.55
7264;BME280;3673;52.480;13.348;2024-02-21T05:01:24;101340.38;;;11.98;65.43
7264;BME280;3673;52.480;13.348;2024-02-21T05:03:50;101328.16;;;12.01;65.79
7264;BME280;3673;52.480;13.348;2024-02-21T05:06:17;101342.16;;;11.97;65.26
7264;BME280;3673;52.480;13.348;2024-02-21T05:08:44;101333.34;;;11.87;65.49
7264;BME280;3673;52.480;13.348;2024-02-21T05:11:11;101335.22;;;12.23;65.26
7264;BME280;3673;52.480;13.348;2024-02-21T05:13:38;101338.63;;;11.91;64.93
7264;BME280;3673;52.480;13.348;2024-02-21T05:16:06;101339.56;;;12.09;65.11
7264;BME280;3673;52.480;13.348;2024-02-21T05:18:33;101340.38;;;11.90;65.77
7264;BME280;3673;52.480;13.348;2024-02-21T05:21:01;101334.25;;;11.83;65.93
7264;BME280;3673;52.480;13.348;2024-02-21T05:23:28;101350.06;;;12.21;65.21
7264;BME280;3673;52.480;13.348;2024-02-21T05:25:55;101341.31;;;12.15;65.16
7264;BME280;3673;52.480;13.348;2024-02-21T05:28:22;101340.28;;;11.67;66.04
7264;BME280;3673;52.480;13.348;2024-02-21T05:30:48;101344.84;;;12.35;65.18
7264;BME280;3673;52.480;13.348;2024-02-21T05:33:16;101340.41;;;11.96;64.81
7264;BME280;3673;52.480;13.348;2024-02-21T05:35:47;101330.81;;;12.12;65.14
7264;BME280;3673;52.480;13.348;2024-02-21T05:38:14;101343.97;;;12.36;64.05
7264;BME280;3673;52.480;13.348;2024-02-21T05:40:41;101342.13;;;11.96;65.82
7264;BME280;3673;52.480;13.348;2024-02-21T05:43:08;101336.97;;;12.20;64.73
7264;BME280;3673;52.480;13.348;2024-02-21T05:45:35;101341.38;;;12.50;64.06
7264;BME280;3673;52.480;13.348;2024-02-21T05:48:03;101340.50;;;12.49;63.89
7264;BME280;3673;52.480;13.348;2024-02-21T05:50:32;101330.88;;;12.56;63.64
7264;BME280;3673;52.480;13.348;2024-02-21T05:52:59;101338.75;;;12.54;64.18
7264;BME280;3673;52.480;13.348;2024-02-21T05:55:25;101334.34;;;12.23;64.34
7264;BME280;3673;52.480;13.348;2024-02-21T05:57:53;101319.47;;;12.19;64.55
7264;BME280;3673;52.480;13.348;2024-02-21T06:00:21;101326.47;;;12.41;64.06
7264;BME280;3673;52.480;13.348;2024-02-21T06:02:47;101314.22;;;12.42;64.26
7264;BME280;3673;52.480;13.348;2024-02-21T06:05:15;101323.88;;;12.43;63.97
7264;BME280;3673;52.480;13.348;2024-02-21T06:07:43;101330.88;;;12.75;63.37
7264;BME280;3673;52.480;13.348;2024-02-21T06:10:10;101327.38;;;12.37;63.40
7264;BME280;3673;52.480;13.348;2024-02-21T06:12:36;101324.69;;;12.13;64.21
7264;BME280;3673;52.480;13.348;2024-02-21T06:15:04;101322.03;;;11.98;65.23
7264;BME280;3673;52.480;13.348;2024-02-21T06:17:32;101326.38;;;11.91;64.82
7264;BME280;3673;52.480;13.348;2024-02-21T06:19:58;101328.16;;;11.98;65.11
7264;BME280;3673;52.480;13.348;2024-02-21T06:22:25;101322.97;;;12.16;64.99
7264;BME280;3673;52.480;13.348;2024-02-21T06:24:53;101309.84;;;12.22;64.46
7264;BME280;3673;52.480;13.348;2024-02-21T06:27:20;101308.06;;;12.06;65.22
7264;BME280;3673;52.480;13.348;2024-02-21T06:29:47;101323.81;;;12.21;64.98
7264;BME280;3673;52.480;13.348;2024-02-21T06:32:13;101313.31;;;12.08;64.75
7264;BME280;3673;52.480;13.348;2024-02-21T06:34:40;101317.69;;;11.97;65.20
7264;BME280;3673;52.480;13.348;2024-02-21T06:37:07;101308.97;;;12.07;65.29
7264;BME280;3673;52.480;13.348;2024-02-21T06:39:35;101305.34;;;11.74;66.00
7264;BME280;3673;52.480;13.348;2024-02-21T06:42:04;101310.72;;;12.15;65.06
7264;BME280;3673;52.480;13.348;2024-02-21T06:44:31;101311.59;;;12.45;64.31
7264;BME280;3673;52.480;13.348;2024-02-21T06:47:02;101315.06;;;12.00;65.14
7264;BME280;3673;52.480;13.348;2024-02-21T06:49:29;101321.22;;;12.32;64.72
7264;BME280;3673;52.480;13.348;2024-02-21T06:51:55;101320.38;;;12.24;64.40
7264;BME280;3673;52.480;13.348;2024-02-21T06:54:22;101310.72;;;12.20;64.19
7264;BME280;3673;52.480;13.348;2024-02-21T06:56:49;101319.47;;;12.26;64.11
7264;BME280;3673;52.480;13.348;2024-02-21T06:59:17;101308.97;;;12.38;64.15
7264;BME280;3673;52.480;13.348;2024-02-21T07:01:45;101310.72;;;12.21;64.35
7264;BME280;3673;52.480;13.348;2024-02-21T07:04:12;101323.00;;;12.66;63.55
7264;BME280;3673;52.480;13.348;2024-02-21T07:06:39;101329.13;;;12.33;63.87
7264;BME280;3673;52.480;13.348;2024-02-21T07:09:06;101318.59;;;12.85;62.90
7264;BME280;3673;52.480;13.348;2024-02-21T07:11:33;101317.72;;;12.51;63.48
7264;BME280;3673;52.480;13.348;2024-02-21T07:13:59;101324.72;;;12.22;64.82
7264;BME280;3673;52.480;13.348;2024-02-21T07:16:27;101314.25;;;12.60;63.45
7264;BME280;3673;52.480;13.348;2024-02-21T07:18:55;101315.97;;;12.24;64.25
7264;BME280;3673;52.480;13.348;2024-02-21T07:21:22;101316.88;;;12.70;63.20
7264;BME280;3673;52.480;13.348;2024-02-21T07:23:48;101313.38;;;12.65;62.85
7264;BME280;3673;52.480;13.348;2024-02-21T07:26:16;101312.47;;;12.31;63.94
7264;BME280;3673;52.480;13.348;2024-02-21T07:28:43;101312.50;;;12.41;63.88
7264;BME280;3673;52.480;13.348;2024-02-21T07:31:09;101316.84;;;12.32;63.80
7264;BME280;3673;52.480;13.348;2024-02-21T07:33:37;101312.47;;;12.19;64.29
7264;BME280;3673;52.480;13.348;2024-02-21T07:36:06;101309.84;;;12.22;63.76
7264;BME280;3673;52.480;13.348;2024-02-21T07:38:33;101307.22;;;12.18;64.29
7264;BME280;3673;52.480;13.348;2024-02-21T07:41:00;101315.13;;;12.41;63.38
7264;BME280;3673;52.480;13.348;2024-02-21T07:43:27;101309.88;;;12.39;63.71
7264;BME280;3673;52.480;13.348;2024-02-21T07:45:53;101310.72;;;12.15;63.99
7264;BME280;3673;52.480;13.348;2024-02-21T07:48:21;101307.25;;;12.51;63.11
7264;BME280;3673;52.480;13.348;2024-02-21T07:50:51;101311.59;;;12.26;63.35
7264;BME280;3673;52.480;13.348;2024-02-21T07:53:18;101301.97;;;12.28;63.04
7264;BME280;3673;52.480;13.348;2024-02-21T07:55:44;101307.25;;;12.42;62.99
7264;BME280;3673;52.480;13.348;2024-02-21T07:58:11;101305.50;;;12.39;62.91
7264;BME280;3673;52.480;13.348;2024-02-21T08:00:38;101295.00;;;12.73;61.77
7264;BME280;3673;52.480;13.348;2024-02-21T08:03:05;101307.25;;;12.53;62.40
7264;BME280;3673;52.480;13.348;2024-02-21T08:05:34;101306.34;;;12.28;62.52
7264;BME280;3673;52.480;13.348;2024-02-21T08:08:03;101298.50;;;12.29;62.73
7264;BME280;3673;52.480;13.348;2024-02-21T08:10:29;101292.38;;;12.70;61.72
7264;BME280;3673;52.480;13.348;2024-02-21T08:12:56;101301.13;;;12.70;61.92
7264;BME280;3673;52.480;13.348;2024-02-21T08:15:23;101301.13;;;12.20;62.70
7264;BME280;3673;52.480;13.348;2024-02-21T08:17:54;101286.22;;;12.97;61.00
7264;BME280;3673;52.480;13.348;2024-02-21T08:20:24;101301.09;;;12.91;60.70
7264;BME280;3673;52.480;13.348;2024-02-21T08:22:51;101296.72;;;13.10;60.59
7264;BME280;3673;52.480;13.348;2024-02-21T08:25:19;101291.44;;;13.01;60.59
7264;BME280;3673;52.480;13.348;2024-02-21T08:27:46;101293.25;;;12.69;61.27
7264;BME280;3673;52.480;13.348;2024-02-21T08:30:13;101292.34;;;12.97;60.95
7264;BME280;3673;52.480;13.348;2024-02-21T08:32:40;101289.69;;;13.06;60.27
7264;BME280;3673;52.480;13.348;2024-02-21T08:35:08;101295.84;;;13.04;60.82
7264;BME280;3673;52.480;13.348;2024-02-21T08:37:35;101290.56;;;13.22;60.15
7264;BME280;3673;52.480;13.348;2024-02-21T08:40:01;101292.31;;;13.23;60.06
7264;BME280;3673;52.480;13.348;2024-02-21T08:42:35;101277.44;;;12.91;60.84
7264;BME280;3673;52.480;13.348;2024-02-21T08:45:02;101282.72;;;12.78;60.74
7264;BME280;3673;52.480;13.348;2024-02-21T08:47:29;101280.88;;;13.33;59.79
7264;BME280;3673;52.480;13.348;2024-02-21T08:49:55;101285.25;;;13.35;59.66
7264;BME280;3673;52.480;13.348;2024-02-21T08:52:22;101288.81;;;13.19;59.67
7264;BME280;3673;52.480;13.348;2024-02-21T08:54:49;101290.53;;;13.25;59.47
7264;BME280;3673;52.480;13.348;2024-02-21T08:57:19;101284.19;;;13.74;58.56
7264;BME280;3673;52.480;13.348;2024-02-21T08:59:47;101286.56;;;14.20;57.03
7264;BME280;3673;52.480;13.348;2024-02-21T09:02:14;101292.13;;;13.68;57.57
7264;BME280;3673;52.480;13.348;2024-02-21T09:04:42;101294.88;;;13.38;58.91
7264;BME280;3673;52.480;13.348;2024-02-21T09:07:09;101294.97;;;13.11;59.21
7264;BME280;3673;52.480;13.348;2024-02-21T09:09:36;101297.47;;;13.49;58.66
7264;BME280;3673;52.480;13.348;2024-02-21T09:12:06;101293.06;;;13.52;58.38
7264;BME280;3673;52.480;13.348;2024-02-21T09:14:33;101298.38;;;13.40;58.60
7264;BME280;3673;52.480;13.348;2024-02-21T09:17:01;101298.47;;;13.04;59.08
7264;BME280;3673;52.480;13.348;2024-02-21T09:19:29;101290.47;;;13.51;58.36
7264;BME280;3673;52.480;13.348;2024-02-21T09:21:55;101281.47;;;13.96;57.25
7264;BME280;3673;52.480;13.348;2024-02-21T09:24:22;101289.56;;;13.61;58.04
7264;BME280;3673;52.480;13.348;2024-02-21T09:26:49;101282.69;;;13.20;58.39
7264;BME280;3673;52.480;13.348;2024-02-21T09:29:15;101274.44;;;14.01;56.64
7264;BME280;3673;52.480;13.348;2024-02-21T09:31:42;101270.25;;;13.63;57.64
7264;BME280;3673;52.480;13.348;2024-02-21T09:34:11;101278.25;;;13.28;57.58
7264;BME280;3673;52.480;13.348;2024-02-21T09:36:38;101273.88;;;13.36;58.44
7264;BME280;3673;52.480;13.348;2024-02-21T09:39:06;101260.69;;;13.43;58.06
7264;BME280;3673;52.480;13.348;2024-02-21T09:41:34;101263.94;;;13.98;56.21
7264;BME280;3673;52.480;13.348;2024-02-21T09:44:03;101271.09;;;13.68;56.64
7264;BME280;3673;52.480;13.348;2024-02-21T09:46:39;101257.78;;;13.97;56.28
7264;BME280;3673;52.480;13.348;2024-02-21T09:49:25;101252.78;;;13.49;57.49
7264;BME280;3673;52.480;13.348;2024-02-21T09:51:57;101249.78;;;14.12;55.76
7264;BME280;3673;52.480;13.348;2024-02-21T09:54:28;101254.09;;;14.24;55.44
7264;BME280;3673;52.480;13.348;2024-02-21T09:56:55;101259.47;;;14.07;55.20
7264;BME280;3673;52.480;13.348;2024-02-21T09:59:23;101267.53;;;13.80;56.31
7264;BME280;3673;52.480;13.348;2024-02-21T10:01:50;101275.41;;;13.83;55.96
7264;BME280;3673;52.480;13.348;2024-02-21T10:04:19;101276.31;;;13.77;55.70
7264;BME280;3673;52.480;13.348;2024-02-21T10:06:46;101258.81;;;13.69;56.49
7264;BME280;3673;52.480;13.348;2024-02-21T10:09:21;101264.88;;;13.83;56.32
7264;BME280;3673;52.480;13.348;2024-02-21T10:11:48;101262.06;;;14.09;55.32
7264;BME280;3673;52.480;13.348;2024-02-21T10:14:15;101251.41;;;14.30;54.61
7264;BME280;3673;52.480;13.348;2024-02-21T10:16:42;101264.81;;;13.92;55.61
7264;BME280;3673;52.480;13.348;2024-02-21T10:19:18;101269.22;;;13.90;55.29
7264;BME280;3673;52.480;13.348;2024-02-21T10:22:00;101270.16;;;13.78;56.07
7264;BME280;3673;52.480;13.348;2024-02-21T10:24:29;101259.13;;;14.51;54.46
7264;BME280;3673;52.480;13.348;2024-02-21T10:27:01;101264.97;;;13.66;55.64
7264;BME280;3673;52.480;13.348;2024-02-21T10:29:29;101268.06;;;14.29;55.02
7264;BME280;3673;52.480;13.348;2024-02-21T10:32:05;101281.63;;;13.67;56.08
7264;BME280;3673;52.480;13.348;2024-02-21T10:34:34;101272.91;;;13.57;56.57
7264;BME280;3673;52.480;13.348;2024-02-21T10:37:02;101266.78;;;13.57;57.22
7264;BME280;3673;52.480;13.348;2024-02-21T10:39:29;101275.22;;;14.12;55.22
7264;BME280;3673;52.480;13.348;2024-02-21T10:42:01;101268.97;;;14.25;54.91
7264;BME280;3673;52.480;13.348;2024-02-21T10:44:31;101272.72;;;13.92;55.75
7264;BME280;3673;52.480;13.348;2024-02-21T10:46:58;101263.13;;;13.82;56.51
7264;BME280;3673;52.480;13.348;2024-02-21T10:49:26;101256.78;;;14.12;56.26
7264;BME280;3673;52.480;13.348;2024-02-21T10:52:03;101236.72;;;14.00;56.60
7264;BME280;3673;52.480;13.348;2024-02-21T10:54:43;101250.41;;;14.48;55.39
7264;BME280;3673;52.480;13.348;2024-02-21T10:57:12;101248.06;;;14.05;56.60
7264;BME280;3673;52.480;13.348;2024-02-21T10:59:40;101255.09;;;14.06;56.82
7264;BME280;3673;52.480;13.348;2024-02-21T11:02:07;101242.88;;;13.96;57.22
7264;BME280;3673;52.480;13.348;2024-02-21T11:04:36;101238.41;;;14.06;57.08
7264;BME280;3673;52.480;13.348;2024-02-21T11:07:05;101238.00;;;14.60;55.58
7264;BME280;3673;52.480;13.348;2024-02-21T11:09:33;101223.91;;;14.66;55.93
7264;BME280;3673;52.480;13.348;2024-02-21T11:12:05;101223.88;;;14.70;55.52
7264;BME280;3673;52.480;13.348;2024-02-21T11:14:33;101209.78;;;14.74;55.51
7264;BME280;3673;52.480;13.348;2024-02-21T11:17:03;101215.31;;;14.47;55.59
7264;BME280;3673;52.480;13.348;2024-02-21T11:19:40;101207.06;;;14.80;55.45
7264;BME280;3673;52.480;13.348;2024-02-21T11:22:15;101197.19;;;15.01;54.88
7264;BME280;3673;52.480;13.348;2024-02-21T11:24:42;101199.63;;;15.16;54.07
7264;BME280;3673;52.480;13.348;2024-02-21T11:27:11;101185.28;;;14.66;54.68
7264;BME280;3673;52.480;13.348;2024-02-21T11:29:43;101177.44;;;15.33;53.31
7264;BME280;3673;52.480;13.348;2024-02-21T11:32:10;101179.03;;;15.45;52.90
7264;BME280;3673;52.480;13.348;2024-02-21T11:34:37;101177.31;;;15.42;53.04
7264;BME280;3673;52.480;13.348;2024-02-21T11:37:14;101180.50;;;15.66;52.40
7264;BME280;3673;52.480;13.348;2024-02-21T11:39:42;101180.78;;;15.44;52.83
7264;BME280;3673;52.480;13.348;2024-02-21T11:42:09;101164.94;;;15.51;52.46
7264;BME280;3673;52.480;13.348;2024-02-21T11:44:37;101170.44;;;15.31;52.65
7264;BME280;3673;52.480;13.348;2024-02-21T11:47:05;101149.16;;;16.52;50.71
7264;BME280;3673;52.480;13.348;2024-02-21T11:49:37;101142.00;;;16.60;49.77
7264;BME280;3673;52.480;13.348;2024-02-21T11:52:05;101145.75;;;15.96;50.45
7264;BME280;3673;52.480;13.348;2024-02-21T11:54:34;101142.88;;;15.55;51.42
7264;BME280;3673;52.480;13.348;2024-02-21T11:57:01;101128.28;;;15.29;52.31
7264;BME280;3673;52.480;13.348;2024-02-21T11:59:30;101136.88;;;15.42;51.89
7264;BME280;3673;52.480;13.348;2024-02-21T12:01:58;101134.47;;;15.85;51.36
7264;BME280;3673;52.480;13.348;2024-02-21T12:04:26;101122.47;;;16.19;49.75
7264;BME280;3673;52.480;13.348;2024-02-21T12:06:53;101115.38;;;16.70;48.68
7264;BME280;3673;52.480;13.348;2024-02-21T12:09:22;101102.34;;;17.79;45.85
7264;BME280;3673;52.480;13.348;2024-02-21T12:11:59;101112.31;;;16.90;47.74
7264;BME280;3673;52.480;13.348;2024-02-21T12:14:27;101112.41;;;17.25;47.35
7264;BME280;3673;52.480;13.348;2024-02-21T12:16:54;101101.66;;;16.94;48.19
7264;BME280;3673;52.480;13.348;2024-02-21T12:19:21;101092.81;;;16.95;48.12
7264;BME280;3673;52.480;13.348;2024-02-21T12:21:49;101096.53;;;15.93;49.96
7264;BME280;3673;52.480;13.348;2024-02-21T12:24:23;101089.47;;;16.87;48.19
7264;BME280;3673;52.480;13.348;2024-02-21T12:26:50;101077.28;;;16.80;47.95
7264;BME280;3673;52.480;13.348;2024-02-21T12:29:19;101086.41;;;17.06;47.03
7264;BME280;3673;52.480;13.348;2024-02-21T12:31:46;101077.38;;;17.16;47.29
7264;BME280;3673;52.480;13.348;2024-02-21T12:34:13;101063.22;;;17.55;46.36
7264;BME280;3673;52.480;13.348;2024-02-21T12:36:42;101083.53;;;17.16;46.79
7264;BME280;3673;52.480;13.348;2024-02-21T12:39:09;101064.03;;;16.82;47.39
7264;BME280;3673;52.480;13.348;2024-02-21T12:41:36;101068.13;;;16.96;47.48
7264;BME280;3673;52.480;13.348;2024-02-21T12:44:04;101067.63;;;16.33;49.39
7264;BME280;3673;52.480;13.348;2024-02-21T12:46:33;101056.50;;;16.18;49.42
7264;BME280;3673;52.480;13.348;2024-02-21T12:49:00;101046.56;;;16.75;48.39
7264;BME280;3673;52.480;13.348;2024-02-21T12:51:28;101060.53;;;16.37;48.46
7264;BME280;3673;52.480;13.348;2024-02-21T12:53:55;101054.66;;;17.07;47.67
7264;BME280;3673;52.480;13.348;2024-02-21T12:56:22;101050.44;;;16.98;47.48
7264;BME280;3673;52.480;13.348;2024-02-21T12:58:49;101037.84;;;17.11;47.27
7264;BME280;3673;52.480;13.348;2024-02-21T13:01:16;101038.97;;;17.01;46.96
7264;BME280;3673;52.480;13.348;2024-02-21T13:03:44;101032.19;;;17.97;45.03
7264;BME280;3673;52.480;13.348;2024-02-21T13:06:12;101041.66;;;17.72;45.20